Aérodrome :
LOGIN :

S'inscrire | Disclaimer

   EN    FR    IT 

 










Légende :    VFR   VFR Marginal   IFR   IFR Intensif   IFR Très Intensif
Visi : 
Plafond : 
>= 8 km
>= 3000ft
5 à 8 km
1000 à 3000 ft
1500m à 5 km
500 à 1000 ft
800 à 1500m
200 à 500 ft
< 800m
< 200 ft
Symboles :   Orages  Brouillard  Fortes neiges  Fortes précipitations  Vent > 20 kt
SIGMETs :   Divers  Orages  Givrage  Turbulence  Onde Orograph.  Cendres Volcan.







- Altitude de l'aérodrome : 485 ft
- Code IATA : QSA


LELL - Sabadell

DERNIER METAR :
  • 240330Z AUTO 30003KT 9999 NCD 06/05 Q1031

METARs EXPIRÉS :
  • 240300Z AUTO 29003KT 9000 NCD 05/04 Q1031
  • 240230Z AUTO 30003KT 9999 NCD 06/05 Q1031
  • 240200Z AUTO 30003KT 280V350 9999 NCD 06/05 Q1031
  • 240130Z AUTO 29005KT 9999 NCD 06/05 Q1031
  • 240100Z AUTO 28004KT 9999 NCD 06/05 Q1031

TAF TAF LELL
Valide du 24 à 03h jusqu'au 25 à 03h UTC


240200Z 2403/2503 VRB03KT 9999 FEW030 TX18/2413Z TN04/2406Z
TEMPO 2411/2418 17008KT
Pas de NOTAMs connus pour ce terrain.



MET'MAP, la Météo Aéronautique d'un coup d'oeil ! - Copyright ORBIFLY Décembre 2007 - Disclaimer

ORBIFLY MET'MAP TEAM :

Programmation & Développement : Alexandra Zaïnal
Conception & Développement : Baudouin d'Aumeries
Co-Programmation & Développement : Marc-Olivier Méhu
Soutien technique & logistique : Manuel Goepfert

Contact : metmap@orbifly.com




SOURCES & CREDITS :

   NOAA